Time;durP1;ratioP1;P1;durP2;ratioP2;P2;SDS_P1;SDS_P2;PMS_P1;PMS_P2;Temp;Humidity;BMP_temperature;BMP_pressure;BME280_temperature;BME280_humidity;BME280_pressure;Samples;Min_cycle;Max_cycle;Signal;HPM_P1;HPM_P2
2022/07/13 00:00:10;;;;;;;;;;;21.10;75.20;;;;;;5014990;28;796;-67
2022/07/13 00:02:35;;;;;;;;;;;21.10;75.30;;;;;;5014637;28;1294;-67
2022/07/13 00:05:01;;;;;;;;;;;21.00;75.20;;;;;;5013152;28;871;-67
2022/07/13 00:07:26;;;;;;;;;;;21.00;75.20;;;;;;5014719;28;965;-67
2022/07/13 00:09:52;;;;;;;;;;;21.10;75.30;;;;;;5014442;28;986;-67
2022/07/13 00:12:17;;;;;;;;;;;21.10;75.30;;;;;;5014418;28;1258;-67
2022/07/13 00:14:42;;;;;;;;;;;21.00;75.20;;;;;;5014158;28;1923;-67
2022/07/13 00:17:08;;;;;;;;;;;21.00;75.20;;;;;;5014602;28;1158;-67
2022/07/13 00:19:33;;;;;;;;;;;21.00;75.20;;;;;;5005519;28;1119;-67
2022/07/13 00:21:59;;;;;;;;;;;21.10;75.20;;;;;;4995831;28;1216;-67
2022/07/13 00:24:24;;;;;;;;;;;21.00;75.20;;;;;;4994609;28;871;-67
2022/07/13 00:26:50;;;;;;;;;;;21.10;75.30;;;;;;5010326;28;1170;-67
2022/07/13 00:29:15;;;;;;;;;;;21.00;75.20;;;;;;5014254;28;997;-67
2022/07/13 00:31:42;;;;;;;;;;;21.10;75.30;;;;;;5014257;28;880;-67
2022/07/13 00:34:07;;;;;;;;;;;21.00;75.20;;;;;;5013757;28;1902;-67
2022/07/13 00:36:33;;;;;;;;;;;21.00;75.20;;;;;;5014115;28;871;-67
2022/07/13 00:38:58;;;;;;;;;;;21.00;75.20;;;;;;5013986;28;910;-67
2022/07/13 00:41:24;;;;;;;;;;;21.10;75.30;;;;;;5014087;28;883;-67
2022/07/13 00:43:49;;;;;;;;;;;21.00;75.20;;;;;;5013890;28;1284;-66
2022/07/13 00:46:15;;;;;;;;;;;21.00;75.20;;;;;;5013907;28;844;-68
2022/07/13 00:48:41;;;;;;;;;;;21.10;75.30;;;;;;5012606;28;876;-67
2022/07/13 00:51:06;;;;;;;;;;;21.10;75.30;;;;;;5013757;28;812;-66
2022/07/13 00:53:32;;;;;;;;;;;21.10;75.30;;;;;;5013446;28;1961;-67
2022/07/13 00:55:58;;;;;;;;;;;21.00;75.20;;;;;;5012352;28;1070;-67
2022/07/13 00:58:24;;;;;;;;;;;21.10;75.20;;;;;;5013859;28;895;-67
2022/07/13 01:00:49;;;;;;;;;;;21.00;75.20;;;;;;5013763;28;866;-68
2022/07/13 01:03:15;;;;;;;;;;;21.10;75.20;;;;;;5012364;28;1215;-67
2022/07/13 01:05:40;;;;;;;;;;;21.10;75.30;;;;;;5013402;28;788;-67
2022/07/13 01:08:06;;;;;;;;;;;21.00;75.20;;;;;;5013713;28;796;-67
2022/07/13 01:10:31;;;;;;;;;;;21.00;75.20;;;;;;5012368;28;986;-67
2022/07/13 01:12:57;;;;;;;;;;;21.10;75.20;;;;;;5012056;28;1972;-67
2022/07/13 01:15:22;;;;;;;;;;;21.00;75.20;;;;;;5012167;28;1209;-67
2022/07/13 01:17:49;;;;;;;;;;;21.10;75.20;;;;;;5013552;28;1116;-67
2022/07/13 01:20:15;;;;;;;;;;;21.10;75.20;;;;;;4998766;28;1166;-66
2022/07/13 01:22:47;;;;;;;;;;;21.10;75.30;;;;;;4992450;28;1310;-67
2022/07/13 01:25:12;;;;;;;;;;;21.10;75.30;;;;;;4996036;28;1151;-67
2022/07/13 01:27:38;;;;;;;;;;;21.00;75.20;;;;;;5013494;28;1025;-67
2022/07/13 01:30:03;;;;;;;;;;;21.10;75.30;;;;;;5012368;28;831;-67
2022/07/13 01:32:29;;;;;;;;;;;21.10;75.30;;;;;;5028511;22;2064;-71
2022/07/13 01:34:54;;;;;;;;;;;21.00;75.20;;;;;;5011567;28;2019;-71
2022/07/13 01:37:20;;;;;;;;;;;21.00;75.20;;;;;;5034261;28;725;-72
2022/07/13 01:39:45;;;;;;;;;;;21.00;75.20;;;;;;5039516;28;894;-72
2022/07/13 01:42:11;;;;;;;;;;;21.00;75.20;;;;;;5039463;28;927;-72
2022/07/13 01:44:36;;;;;;;;;;;21.10;75.30;;;;;;5039172;28;1176;-72
2022/07/13 01:47:10;;;;;;;;;;;21.10;75.30;;;;;;5039616;28;800;-72
2022/07/13 01:49:36;;;;;;;;;;;21.00;75.20;;;;;;5038250;28;898;-72
2022/07/13 01:52:01;;;;;;;;;;;21.00;75.20;;;;;;5039255;28;812;-72
2022/07/13 01:54:27;;;;;;;;;;;21.00;75.20;;;;;;5039047;28;1961;-73
2022/07/13 01:56:52;;;;;;;;;;;21.00;75.20;;;;;;5039215;28;1013;-72
2022/07/13 01:59:18;;;;;;;;;;;21.00;75.20;;;;;;5038118;28;1076;-72
2022/07/13 02:01:44;;;;;;;;;;;21.10;75.30;;;;;;5039312;28;1195;-72
2022/07/13 02:04:09;;;;;;;;;;;21.00;75.20;;;;;;5039104;28;1199;-72
2022/07/13 02:06:34;;;;;;;;;;;21.10;76.00;;;;;;5037967;28;1025;-72
2022/07/13 02:09:00;;;;;;;;;;;21.10;75.30;;;;;;5039411;28;799;-72
2022/07/13 02:11:25;;;;;;;;;;;21.00;75.20;;;;;;5039409;28;907;-72
2022/07/13 02:13:51;;;;;;;;;;;21.00;75.20;;;;;;5038855;28;1886;-72
2022/07/13 02:16:17;;;;;;;;;;;21.10;75.30;;;;;;5039286;28;1182;-72
2022/07/13 02:18:42;;;;;;;;;;;21.00;75.20;;;;;;5037077;28;1134;-72
2022/07/13 02:21:08;;;;;;;;;;;21.00;75.20;;;;;;5017934;28;891;-72
2022/07/13 02:23:33;;;;;;;;;;;21.10;75.30;;;;;;5018075;28;1291;-72
2022/07/13 02:25:58;;;;;;;;;;;21.10;75.30;;;;;;5027721;28;1296;-72
2022/07/13 02:28:24;;;;;;;;;;;21.00;75.20;;;;;;5039244;28;866;-72
2022/07/13 02:30:49;;;;;;;;;;;21.10;75.30;;;;;;5039106;28;895;-72
2022/07/13 02:33:15;;;;;;;;;;;21.00;75.20;;;;;;5037793;28;1894;-72
2022/07/13 02:35:40;;;;;;;;;;;21.00;75.20;;;;;;5038690;28;997;-72
2022/07/13 02:38:06;;;;;;;;;;;21.00;75.20;;;;;;5039287;28;1060;-72
2022/07/13 02:40:31;;;;;;;;;;;21.10;75.30;;;;;;5039186;28;850;-72
2022/07/13 02:42:56;;;;;;;;;;;21.00;75.20;;;;;;5037748;28;1297;-72
2022/07/13 02:45:22;;;;;;;;;;;21.10;75.30;;;;;;5038882;28;842;-72
2022/07/13 02:47:47;;;;;;;;;;;21.10;75.30;;;;;;5037708;28;1168;-72
2022/07/13 02:50:13;;;;;;;;;;;21.10;75.30;;;;;;5017423;28;1300;-72
2022/07/13 02:52:38;;;;;;;;;;;21.10;75.30;;;;;;5034533;28;1953;-72
2022/07/13 02:55:04;;;;;;;;;;;21.10;75.30;;;;;;5035571;28;1064;-71
2022/07/13 02:57:29;;;;;;;;;;;21.10;75.30;;;;;;5035779;28;1014;-72
2022/07/13 02:59:55;;;;;;;;;;;21.10;75.30;;;;;;5035716;28;894;-72
2022/07/13 03:02:20;;;;;;;;;;;21.10;75.40;;;;;;5034485;28;1203;-71
2022/07/13 03:04:46;;;;;;;;;;;21.00;75.30;;;;;;5033941;28;820;-72
2022/07/13 03:07:11;;;;;;;;;;;21.10;75.30;;;;;;5035456;28;799;-72
2022/07/13 03:09:37;;;;;;;;;;;21.00;75.20;;;;;;5035404;28;899;-72
2022/07/13 03:12:02;;;;;;;;;;;21.00;75.20;;;;;;5035366;28;817;-72
2022/07/13 03:14:28;;;;;;;;;;;21.10;75.40;;;;;;5035408;28;1911;-72
2022/07/13 03:16:53;;;;;;;;;;;21.10;75.30;;;;;;5035180;28;1233;-72
2022/07/13 03:19:18;;;;;;;;;;;21.00;75.90;;;;;;5027888;28;1178;-72
2022/07/13 03:21:44;;;;;;;;;;;21.00;75.20;;;;;;5015475;28;784;-72
2022/07/13 03:24:09;;;;;;;;;;;21.00;75.20;;;;;;5015029;28;1281;-72
2022/07/13 03:26:35;;;;;;;;;;;21.10;75.30;;;;;;5028978;28;1199;-72
2022/07/13 03:29:00;;;;;;;;;;;21.00;75.20;;;;;;5035103;28;1021;-72
2022/07/13 03:31:26;;;;;;;;;;;21.10;75.30;;;;;;5033776;28;1283;-72
2022/07/13 03:33:51;;;;;;;;;;;21.10;76.10;;;;;;5016683;28;1910;-72
2022/07/13 03:36:17;;;;;;;;;;;21.00;75.20;;;;;;5034719;28;1058;-72
2022/07/13 03:38:42;;;;;;;;;;;21.00;75.20;;;;;;5034093;28;764;-72
2022/07/13 03:41:08;;;;;;;;;;;21.00;75.20;;;;;;5034856;28;894;-72
2022/07/13 03:43:33;;;;;;;;;;;21.10;75.40;;;;;;5034718;28;1146;-72
2022/07/13 03:45:58;;;;;;;;;;;21.00;75.20;;;;;;5034816;28;773;-72
2022/07/13 03:48:24;;;;;;;;;;;21.10;75.40;;;;;;5033366;28;1210;-72
2022/07/13 03:50:49;;;;;;;;;;;21.10;75.30;;;;;;5034496;28;883;-72
2022/07/13 03:53:15;;;;;;;;;;;21.00;75.20;;;;;;5033405;28;1902;-72
2022/07/13 03:55:41;;;;;;;;;;;21.10;75.30;;;;;;5033128;28;798;-72
2022/07/13 03:58:06;;;;;;;;;;;21.10;75.30;;;;;;5033376;28;1100;-72
2022/07/13 04:00:31;;;;;;;;;;;21.00;75.20;;;;;;5033278;28;906;-72
2022/07/13 04:02:57;;;;;;;;;;;21.10;75.30;;;;;;5034215;28;1188;-72
2022/07/13 04:05:23;;;;;;;;;;;21.00;75.30;;;;;;5032896;28;780;-72
2022/07/13 04:07:48;;;;;;;;;;;21.00;75.20;;;;;;5033077;28;864;-72
2022/07/13 04:10:14;;;;;;;;;;;21.00;75.20;;;;;;5034400;28;832;-72
2022/07/13 04:12:42;;;;;;;;;;;21.10;75.30;;;;;;5034108;28;1977;-72
2022/07/13 04:15:08;;;;;;;;;;;21.00;75.30;;;;;;5033902;28;1138;-72
2022/07/13 04:17:33;;;;;;;;;;;21.00;75.20;;;;;;5033993;28;1073;-72
2022/07/13 04:19:59;;;;;;;;;;;21.10;75.30;;;;;;5020008;28;1228;-72
2022/07/13 04:22:24;;;;;;;;;;;21.00;75.20;;;;;;5013407;28;1294;-72
2022/07/13 04:24:50;;;;;;;;;;;21.00;75.20;;;;;;5014535;28;1178;-72
2022/07/13 04:27:15;;;;;;;;;;;21.10;75.30;;;;;;5032635;28;1395;-72
2022/07/13 04:29:41;;;;;;;;;;;21.00;75.20;;;;;;5034072;28;788;-72
2022/07/13 04:32:08;;;;;;;;;;;21.00;75.20;;;;;;5033769;28;1025;-72
2022/07/13 04:34:34;;;;;;;;;;;21.00;75.20;;;;;;5032017;28;1965;-72
2022/07/13 04:36:59;;;;;;;;;;;21.00;75.30;;;;;;5033830;28;855;-72
2022/07/13 04:39:25;;;;;;;;;;;21.10;75.30;;;;;;5033753;28;819;-72
2022/07/13 04:41:50;;;;;;;;;;;21.10;75.30;;;;;;5033689;28;880;-72
2022/07/13 04:44:16;;;;;;;;;;;21.00;75.20;;;;;;5033411;28;1220;-72
2022/07/13 04:46:41;;;;;;;;;;;21.10;75.40;;;;;;5033527;28;889;-72
2022/07/13 04:49:07;;;;;;;;;;;21.00;75.20;;;;;;5033436;28;820;-72
2022/07/13 04:51:33;;;;;;;;;;;21.10;75.40;;;;;;5033268;28;895;-72
2022/07/13 04:53:59;;;;;;;;;;;21.00;75.30;;;;;;5032013;28;1894;-72
2022/07/13 04:56:24;;;;;;;;;;;21.10;75.40;;;;;;5033401;28;845;-72
2022/07/13 04:58:50;;;;;;;;;;;21.10;75.30;;;;;;5032156;28;1309;-72
2022/07/13 05:01:15;;;;;;;;;;;21.00;75.20;;;;;;5033670;28;784;-72
2022/07/13 05:03:41;;;;;;;;;;;21.10;75.40;;;;;;5032938;28;1216;-72
2022/07/13 05:06:06;;;;;;;;;;;21.00;75.20;;;;;;5033126;28;788;-72
2022/07/13 05:08:32;;;;;;;;;;;21.00;75.20;;;;;;5031976;28;800;-73
2022/07/13 05:10:57;;;;;;;;;;;21.00;75.20;;;;;;5033258;28;922;-72
2022/07/13 05:13:23;;;;;;;;;;;21.10;75.40;;;;;;5031268;28;1902;-73
2022/07/13 05:15:48;;;;;;;;;;;21.00;75.70;;;;;;5032892;28;1169;-73
2022/07/13 05:18:14;;;;;;;;;;;21.10;75.40;;;;;;5032984;28;935;-73
2022/07/13 05:20:39;;;;;;;;;;;21.10;75.30;;;;;;5015179;28;1150;-72
2022/07/13 05:23:04;;;;;;;;;;;21.00;75.20;;;;;;5012153;28;1220;-72
2022/07/13 05:25:30;;;;;;;;;;;21.10;76.10;;;;;;5018276;28;1159;-72
2022/07/13 05:27:55;;;;;;;;;;;21.00;75.20;;;;;;5031744;28;953;-72
2022/07/13 05:30:21;;;;;;;;;;;21.00;75.30;;;;;;5031282;28;899;-71
2022/07/13 05:32:46;;;;;;;;;;;21.10;76.10;;;;;;5032399;28;1898;-72
2022/07/13 05:35:12;;;;;;;;;;;21.00;75.20;;;;;;5032848;28;950;-72
2022/07/13 05:37:37;;;;;;;;;;;21.00;75.20;;;;;;5031679;28;819;-72
2022/07/13 05:40:03;;;;;;;;;;;21.00;75.30;;;;;;5032960;28;879;-72
2022/07/13 05:42:30;;;;;;;;;;;21.10;75.30;;;;;;5031445;28;1352;-72
2022/07/13 05:44:55;;;;;;;;;;;21.10;75.40;;;;;;5031494;28;922;-72
2022/07/13 05:47:21;;;;;;;;;;;21.10;75.30;;;;;;5031379;28;1335;-72
2022/07/13 05:49:46;;;;;;;;;;;21.10;75.30;;;;;;5032374;28;875;-72
2022/07/13 05:52:12;;;;;;;;;;;21.00;75.20;;;;;;5032648;28;870;-72
2022/07/13 05:54:37;;;;;;;;;;;21.00;75.30;;;;;;5032503;28;1962;-72
2022/07/13 05:57:02;;;;;;;;;;;21.10;75.40;;;;;;5031609;28;946;-72
2022/07/13 05:59:28;;;;;;;;;;;21.00;75.20;;;;;;5032766;28;1023;-72
2022/07/13 06:01:53;;;;;;;;;;;21.00;75.30;;;;;;5031354;28;874;-72
2022/07/13 06:04:19;;;;;;;;;;;21.10;75.40;;;;;;5032373;28;1191;-72
2022/07/13 06:06:45;;;;;;;;;;;21.00;75.30;;;;;;5032680;28;829;-72
2022/07/13 06:09:11;;;;;;;;;;;21.00;75.30;;;;;;5032791;28;716;-72
2022/07/13 06:11:37;;;;;;;;;;;21.00;75.30;;;;;;5032552;28;882;-72
2022/07/13 06:14:02;;;;;;;;;;;21.00;75.30;;;;;;5032172;28;2071;-72
2022/07/13 06:16:28;;;;;;;;;;;21.00;75.20;;;;;;5032365;28;1213;-72
2022/07/13 06:18:53;;;;;;;;;;;21.00;75.30;;;;;;5029073;28;1157;-72
2022/07/13 06:21:18;;;;;;;;;;;21.00;75.30;;;;;;5012623;28;847;-72
2022/07/13 06:23:44;;;;;;;;;;;21.00;75.30;;;;;;5012821;28;1189;-72
2022/07/13 06:26:09;;;;;;;;;;;21.00;75.30;;;;;;5027566;28;1078;-72
2022/07/13 06:28:35;;;;;;;;;;;21.10;75.30;;;;;;5036404;28;791;-72
2022/07/13 06:31:00;;;;;;;;;;;21.00;75.20;;;;;;5036248;28;796;-72
2022/07/13 06:33:26;;;;;;;;;;;21.00;75.30;;;;;;5035761;28;1902;-72
2022/07/13 06:35:51;;;;;;;;;;;21.00;75.30;;;;;;5036062;28;978;-72
2022/07/13 06:38:17;;;;;;;;;;;21.00;75.30;;;;;;5018457;28;1259;-72
2022/07/13 06:40:42;;;;;;;;;;;21.00;75.30;;;;;;5036112;28;848;-72
2022/07/13 06:43:08;;;;;;;;;;;21.00;75.30;;;;;;5036162;28;1213;-72
2022/07/13 06:45:34;;;;;;;;;;;21.00;75.30;;;;;;5034361;28;1061;-72
2022/07/13 06:48:00;;;;;;;;;;;21.00;75.30;;;;;;5035825;28;870;-72
2022/07/13 06:50:26;;;;;;;;;;;21.00;75.30;;;;;;5035909;28;859;-72
2022/07/13 06:52:51;;;;;;;;;;;21.00;75.30;;;;;;5035557;28;1973;-72
2022/07/13 06:55:16;;;;;;;;;;;21.00;75.30;;;;;;5035566;28;799;-72
2022/07/13 06:57:42;;;;;;;;;;;21.10;75.40;;;;;;5035611;28;800;-72
2022/07/13 07:00:08;;;;;;;;;;;21.10;75.40;;;;;;5035691;28;800;-72
2022/07/13 07:02:36;;;;;;;;;;;21.10;75.40;;;;;;5034149;28;1226;-72
2022/07/13 07:05:02;;;;;;;;;;;21.00;75.30;;;;;;5017800;28;1544;-72
2022/07/13 07:07:27;;;;;;;;;;;21.00;75.30;;;;;;5035543;28;1018;-71
2022/07/13 07:09:52;;;;;;;;;;;21.10;75.40;;;;;;5033548;28;1713;-71
2022/07/13 07:12:18;;;;;;;;;;;21.10;75.40;;;;;;5026919;28;1122;-73
2022/07/13 07:14:43;;;;;;;;;;;21.00;75.30;;;;;;5030576;28;1894;-71
2022/07/13 07:17:09;;;;;;;;;;;21.00;75.30;;;;;;5028240;28;1103;-69
2022/07/13 07:19:35;;;;;;;;;;;21.00;75.30;;;;;;5025642;28;1178;-70
2022/07/13 07:22:00;;;;;;;;;;;21.00;75.30;;;;;;5022971;28;1237;-72
2022/07/13 07:24:26;;;;;;;;;;;21.10;75.40;;;;;;5015342;28;1290;-70
2022/07/13 07:26:52;;;;;;;;;;;21.10;75.40;;;;;;5032569;28;1175;-69
2022/07/13 07:29:17;;;;;;;;;;;21.10;75.40;;;;;;5035066;28;883;-70
2022/07/13 07:31:43;;;;;;;;;;;21.00;75.20;;;;;;5033644;28;926;-72
2022/07/13 07:34:08;;;;;;;;;;;21.10;75.40;;;;;;5046151;22;3755;-66
2022/07/13 07:36:34;;;;;;;;;;;21.10;75.40;;;;;;5033817;28;716;-66
2022/07/13 07:38:59;;;;;;;;;;;21.00;75.20;;;;;;5035070;28;791;-66
2022/07/13 07:41:25;;;;;;;;;;;21.00;75.30;;;;;;5017100;28;911;-68
2022/07/13 07:43:50;;;;;;;;;;;21.10;75.40;;;;;;5034548;28;1216;-67
2022/07/13 07:46:15;;;;;;;;;;;21.00;75.30;;;;;;5034673;28;899;-68
2022/07/13 07:48:41;;;;;;;;;;;21.10;75.40;;;;;;5034825;28;1005;-67
2022/07/13 07:51:06;;;;;;;;;;;21.10;75.40;;;;;;5034763;28;795;-68
2022/07/13 07:53:32;;;;;;;;;;;21.00;75.30;;;;;;5034805;28;1918;-67
2022/07/13 07:55:57;;;;;;;;;;;21.10;75.40;;;;;;5034323;28;1189;-67
2022/07/13 07:58:23;;;;;;;;;;;21.10;75.40;;;;;;5034947;28;1034;-67
2022/07/13 08:00:48;;;;;;;;;;;21.10;75.40;;;;;;5034427;28;783;-67
2022/07/13 08:03:14;;;;;;;;;;;21.00;75.20;;;;;;5033224;28;1029;-67
2022/07/13 08:05:41;;;;;;;;;;;21.00;75.30;;;;;;5034107;28;1274;-67
2022/07/13 08:08:07;;;;;;;;;;;21.10;75.30;;;;;;5034383;28;834;-67
2022/07/13 08:10:32;;;;;;;;;;;21.10;75.40;;;;;;5034378;28;1053;-68
2022/07/13 08:12:58;;;;;;;;;;;21.10;75.40;;;;;;5034075;28;1882;-69
2022/07/13 08:15:24;;;;;;;;;;;21.00;75.30;;;;;;5032568;28;1190;-68
2022/07/13 08:17:49;;;;;;;;;;;21.00;75.30;;;;;;5032948;28;918;-68
2022/07/13 08:20:15;;;;;;;;;;;21.10;75.40;;;;;;5019324;28;1154;-68
2022/07/13 08:22:40;;;;;;;;;;;21.10;75.40;;;;;;5014266;28;808;-69
2022/07/13 08:25:06;;;;;;;;;;;21.00;75.30;;;;;;5016629;28;1207;-67
2022/07/13 08:27:32;;;;;;;;;;;21.10;75.40;;;;;;5033959;28;799;-67
2022/07/13 08:29:58;;;;;;;;;;;21.00;75.20;;;;;;5032627;28;877;-68
2022/07/13 08:32:23;;;;;;;;;;;21.00;75.30;;;;;;5033804;28;907;-67
2022/07/13 08:40:18;;;;;;;;;;;21.00;75.20;;;;;;5033635;28;598;-67
2022/07/13 08:42:43;;;;;;;;;;;21.00;75.30;;;;;;5033681;28;837;-67
2022/07/13 08:45:09;;;;;;;;;;;21.00;75.30;;;;;;5033503;28;1296;-67
2022/07/13 08:47:34;;;;;;;;;;;21.00;75.30;;;;;;5032641;28;871;-67
2022/07/13 08:50:04;;;;;;;;;;;21.00;75.30;;;;;;5033661;28;840;-67
2022/07/13 08:52:29;;;;;;;;;;;21.00;75.30;;;;;;5032267;28;816;-67
2022/07/13 08:54:55;;;;;;;;;;;21.00;75.30;;;;;;5032029;28;1906;-69
2022/07/13 08:57:20;;;;;;;;;;;21.10;75.40;;;;;;5033476;28;864;-69
2022/07/13 08:59:46;;;;;;;;;;;21.00;75.30;;;;;;5033483;28;1084;-69
2022/07/13 09:02:11;;;;;;;;;;;21.00;75.30;;;;;;5033351;28;914;-68
2022/07/13 09:04:37;;;;;;;;;;;21.00;75.30;;;;;;5033028;28;1712;-68
2022/07/13 09:07:02;;;;;;;;;;;21.00;75.30;;;;;;5032147;28;883;-68
2022/07/13 09:09:31;;;;;;;;;;;21.10;75.40;;;;;;5033155;28;811;-68
2022/07/13 09:12:09;;;;;;;;;;;21.00;75.30;;;;;;5031905;28;1307;-69
2022/07/13 09:14:35;;;;;;;;;;;21.10;75.40;;;;;;5031575;28;1994;-68
2022/07/13 09:17:01;;;;;;;;;;;21.00;75.40;;;;;;5031944;28;1174;-68
2022/07/13 09:19:32;;;;;;;;;;;21.00;75.30;;;;;;5025084;28;1122;-68
2022/07/13 09:22:08;;;;;;;;;;;21.10;75.40;;;;;;5012214;28;1062;-68
2022/07/13 09:24:46;;;;;;;;;;;21.00;75.30;;;;;;5012995;28;1214;-68
2022/07/13 09:27:12;;;;;;;;;;;21.10;75.40;;;;;;5028600;28;886;-68
2022/07/13 09:29:37;;;;;;;;;;;21.10;75.40;;;;;;5012188;28;795;-67
2022/07/13 09:32:10;;;;;;;;;;;21.10;75.40;;;;;;5013275;28;859;-67
2022/07/13 09:34:44;;;;;;;;;;;21.10;75.40;;;;;;5011490;28;1959;-69
2022/07/13 09:37:10;;;;;;;;;;;21.10;75.40;;;;;;5013199;28;969;-69
2022/07/13 09:39:54;;;;;;;;;;;21.00;75.30;;;;;;5013139;28;1091;-69
2022/07/13 09:42:24;;;;;;;;;;;21.10;75.40;;;;;;5011989;28;915;-69
2022/07/13 09:47:39;;;;;;;;;;;21.00;75.30;;;;;;5012149;28;677;-69
2022/07/13 09:50:05;;;;;;;;;;;21.10;75.40;;;;;;5013169;28;767;-69
2022/07/13 09:52:31;;;;;;;;;;;21.10;75.40;;;;;;5011732;28;1457;-68
2022/07/13 09:54:57;;;;;;;;;;;21.00;75.30;;;;;;5012667;28;1910;-68
2022/07/13 09:57:22;;;;;;;;;;;21.10;75.40;;;;;;5011661;28;932;-67
2022/07/13 09:59:49;;;;;;;;;;;21.10;75.40;;;;;;4998430;28;1469;-68
2022/07/13 10:02:14;;;;;;;;;;;21.00;75.30;;;;;;5015913;28;815;-68
2022/07/13 10:04:40;;;;;;;;;;;21.00;75.30;;;;;;5015415;28;1381;-68
2022/07/13 10:07:06;;;;;;;;;;;21.00;75.30;;;;;;5016787;28;785;-68
2022/07/13 10:09:31;;;;;;;;;;;21.00;75.30;;;;;;5015655;28;1018;-68
2022/07/13 10:12:00;;;;;;;;;;;21.10;75.40;;;;;;5015477;28;812;-68
2022/07/13 10:14:26;;;;;;;;;;;21.10;75.40;;;;;;5016597;28;1953;-68
2022/07/13 10:16:59;;;;;;;;;;;21.00;75.30;;;;;;5031379;28;1143;-67
2022/07/13 10:19:24;;;;;;;;;;;21.00;75.30;;;;;;5027664;28;1178;-67
2022/07/13 10:21:53;;;;;;;;;;;21.10;75.40;;;;;;4998876;28;850;-68
2022/07/13 10:24:18;;;;;;;;;;;21.00;75.30;;;;;;5016274;28;1282;-67
2022/07/13 10:26:46;;;;;;;;;;;21.00;75.30;;;;;;5032258;28;1203;-68
2022/07/13 10:29:11;;;;;;;;;;;21.00;75.30;;;;;;5035108;28;941;-68
2022/07/13 10:31:37;;;;;;;;;;;21.10;75.40;;;;;;5036437;28;851;-67
2022/07/13 10:34:03;;;;;;;;;;;21.00;75.40;;;;;;5035695;28;1897;-68
2022/07/13 10:36:47;;;;;;;;;;;21.00;75.30;;;;;;5036310;28;879;-67
2022/07/13 10:39:13;;;;;;;;;;;21.00;75.30;;;;;;5034930;28;1207;-68
2022/07/13 10:41:57;;;;;;;;;;;21.00;75.30;;;;;;5036253;28;792;-68
2022/07/13 10:44:32;;;;;;;;;;;21.00;75.40;;;;;;5035760;28;1322;-67
2022/07/13 10:46:58;;;;;;;;;;;21.00;75.30;;;;;;5035978;28;808;-67
2022/07/13 10:49:30;;;;;;;;;;;21.00;75.30;;;;;;5034645;28;784;-67
2022/07/13 10:51:57;;;;;;;;;;;21.10;76.10;;;;;;5035806;28;845;-67
2022/07/13 10:54:22;;;;;;;;;;;21.00;75.30;;;;;;5035416;28;1906;-66
2022/07/13 10:57:07;;;;;;;;;;;21.10;75.40;;;;;;5034510;28;705;-66
2022/07/13 10:59:58;;;;;;;;;;;21.10;75.40;;;;;;5036031;28;707;-68
2022/07/13 11:02:43;;;;;;;;;;;21.10;75.40;;;;;;5019549;28;1380;-68
2022/07/13 11:05:09;;;;;;;;;;;21.10;76.10;;;;;;5035296;28;1193;-68
2022/07/13 11:07:41;;;;;;;;;;;21.00;75.40;;;;;;5035587;28;878;-68
2022/07/13 11:10:16;;;;;;;;;;;21.10;75.40;;;;;;5034695;28;791;-68
2022/07/13 11:12:58;;;;;;;;;;;21.10;75.40;;;;;;5017723;28;867;-68
2022/07/13 11:15:24;;;;;;;;;;;21.10;75.40;;;;;;5031501;28;1185;-68
2022/07/13 11:17:53;;;;;;;;;;;21.10;75.40;;;;;;5015543;28;812;-68
2022/07/13 11:20:19;;;;;;;;;;;21.10;75.40;;;;;;5014412;28;1182;-67
2022/07/13 11:25:42;;;;;;;;;;;21.10;75.40;;;;;;5021578;28;1255;-67
2022/07/13 11:28:14;;;;;;;;;;;21.10;75.40;;;;;;5033987;28;898;-66
2022/07/13 11:30:41;;;;;;;;;;;21.10;75.40;;;;;;5034247;28;2163;-67
2022/07/13 11:33:12;;;;;;;;;;;21.10;75.40;;;;;;5022811;28;1902;-67
2022/07/13 11:35:38;;;;;;;;;;;21.10;76.10;;;;;;5033490;28;1693;-67
2022/07/13 11:38:04;;;;;;;;;;;21.10;75.40;;;;;;5026853;28;1295;-66
2022/07/13 11:40:30;;;;;;;;;;;21.00;75.30;;;;;;5031626;28;1433;-67
2022/07/13 11:42:57;;;;;;;;;;;21.10;75.40;;;;;;5029072;28;1603;-66
2022/07/13 11:45:32;;;;;;;;;;;21.10;75.40;;;;;;5025267;28;1651;-66
2022/07/13 11:47:58;;;;;;;;;;;21.00;75.40;;;;;;5035032;28;893;-67
2022/07/13 11:50:37;;;;;;;;;;;21.10;75.40;;;;;;5033797;28;891;-67
2022/07/13 11:53:02;;;;;;;;;;;21.10;75.40;;;;;;5034705;28;1963;-66
2022/07/13 11:55:28;;;;;;;;;;;21.10;75.40;;;;;;5034472;28;1218;-67
2022/07/13 11:57:54;;;;;;;;;;;21.10;75.40;;;;;;5034881;28;822;-65
2022/07/13 12:00:19;;;;;;;;;;;21.10;75.40;;;;;;5033422;28;1206;-67
2022/07/13 12:02:50;;;;;;;;;;;21.00;75.30;;;;;;5032723;28;2276;-67
2022/07/13 12:05:21;;;;;;;;;;;21.00;75.30;;;;;;5027099;28;1396;-67
2022/07/13 12:07:59;;;;;;;;;;;21.10;75.40;;;;;;5024883;28;1197;-66
2022/07/13 12:10:24;;;;;;;;;;;21.10;76.10;;;;;;5031505;28;1060;-67
2022/07/13 12:12:50;;;;;;;;;;;21.10;75.40;;;;;;5027502;28;1146;-66
2022/07/13 12:15:15;;;;;;;;;;;21.10;75.40;;;;;;5031291;28;1878;-66
2022/07/13 12:17:41;;;;;;;;;;;21.10;75.40;;;;;;5026066;28;1317;-66
2022/07/13 12:20:11;;;;;;;;;;;21.10;75.40;;;;;;5024859;28;1162;-67
2022/07/13 12:22:37;;;;;;;;;;;21.10;75.40;;;;;;5014414;28;788;-66
2022/07/13 12:25:03;;;;;;;;;;;21.10;75.40;;;;;;5016007;28;1167;-66
2022/07/13 12:27:29;;;;;;;;;;;21.00;75.30;;;;;;5033555;28;869;-66
2022/07/13 12:30:11;;;;;;;;;;;21.10;75.40;;;;;;5033941;28;847;-66
2022/07/13 12:32:56;;;;;;;;;;;21.00;75.30;;;;;;5032593;28;918;-66
2022/07/13 12:35:24;;;;;;;;;;;21.10;75.40;;;;;;5033427;28;1231;-67
2022/07/13 12:37:50;;;;;;;;;;;21.10;75.40;;;;;;5033471;28;938;-67
2022/07/13 12:40:34;;;;;;;;;;;21.10;75.40;;;;;;5033847;28;816;-67
2022/07/13 12:43:00;;;;;;;;;;;21.10;75.40;;;;;;5033679;28;792;-66
2022/07/13 12:45:28;;;;;;;;;;;21.00;75.40;;;;;;5033298;28;1276;-67
2022/07/13 12:47:53;;;;;;;;;;;21.10;75.40;;;;;;5032262;28;1073;-67
2022/07/13 12:50:28;;;;;;;;;;;21.10;75.40;;;;;;5033373;28;1050;-66
2022/07/13 12:53:00;;;;;;;;;;;21.10;75.40;;;;;;5033789;28;823;-67
2022/07/13 12:55:25;;;;;;;;;;;21.10;75.40;;;;;;5031807;28;1279;-66
2022/07/13 12:57:51;;;;;;;;;;;21.10;75.40;;;;;;5019787;28;1370;-67
2022/07/13 13:00:21;;;;;;;;;;;21.10;75.40;;;;;;5023308;28;1306;-67
2022/07/13 13:02:46;;;;;;;;;;;21.10;75.40;;;;;;5022059;28;1294;-66
2022/07/13 13:05:12;;;;;;;;;;;21.10;75.40;;;;;;5019663;28;1340;-67
2022/07/13 13:07:37;;;;;;;;;;;21.10;75.40;;;;;;5023141;28;1298;-67
2022/07/13 13:10:03;;;;;;;;;;;21.10;75.40;;;;;;5022630;28;1271;-67
2022/07/13 13:12:29;;;;;;;;;;;21.10;75.40;;;;;;5021075;28;1187;-69
2022/07/13 13:14:54;;;;;;;;;;;21.10;75.40;;;;;;5022749;28;1906;-69
2022/07/13 13:17:20;;;;;;;;;;;21.10;75.40;;;;;;5020870;28;1254;-66
2022/07/13 13:19:45;;;;;;;;;;;21.10;75.40;;;;;;5022888;28;1298;-69
2022/07/13 13:22:10;;;;;;;;;;;21.10;75.40;;;;;;5023091;28;1275;-69
2022/07/13 13:24:36;;;;;;;;;;;21.10;75.40;;;;;;5020085;28;1288;-67
2022/07/13 13:27:01;;;;;;;;;;;21.10;75.40;;;;;;5022043;28;1151;-67
2022/07/13 13:32:11;;;;;;;;;;;21.10;75.40;;;;;;5022878;28;1176;-67
2022/07/13 13:34:36;;;;;;;;;;;21.10;75.40;;;;;;5043351;22;1903;-70
2022/07/13 13:37:02;;;;;;;;;;;21.10;75.40;;;;;;5026917;28;1037;-70
2022/07/13 13:39:27;;;;;;;;;;;21.10;75.40;;;;;;5021229;28;1231;-70
2022/07/13 13:41:53;;;;;;;;;;;21.10;75.40;;;;;;5022999;28;1379;-70
2022/07/13 13:44:18;;;;;;;;;;;21.10;75.40;;;;;;5022097;28;1320;-70
2022/07/13 13:46:44;;;;;;;;;;;21.10;75.40;;;;;;5002037;28;1181;-70
2022/07/13 13:49:11;;;;;;;;;;;21.10;76.10;;;;;;5006660;28;1295;-73
2022/07/13 13:51:36;;;;;;;;;;;21.10;75.40;;;;;;4994146;28;2135;-72
2022/07/13 13:54:02;;;;;;;;;;;21.10;75.40;;;;;;4970925;28;1961;-72
2022/07/13 13:56:27;;;;;;;;;;;21.10;75.40;;;;;;5002856;28;1646;-73
2022/07/13 13:58:53;;;;;;;;;;;21.10;75.40;;;;;;5012586;28;850;-72
2022/07/13 14:01:18;;;;;;;;;;;21.10;75.40;;;;;;5012119;28;859;-72
2022/07/13 14:03:44;;;;;;;;;;;21.10;75.40;;;;;;5012003;28;804;-72
2022/07/13 14:06:12;;;;;;;;;;;21.10;75.40;;;;;;4994408;28;1214;-72
2022/07/13 14:08:43;;;;;;;;;;;21.10;75.40;;;;;;4994996;28;925;-72
2022/07/13 14:11:10;;;;;;;;;;;21.10;75.40;;;;;;4995101;28;878;-73
2022/07/13 14:13:35;;;;;;;;;;;21.10;75.40;;;;;;5011939;28;1961;-73
2022/07/13 14:16:01;;;;;;;;;;;21.10;75.50;;;;;;4985315;28;1656;-73
2022/07/13 14:18:27;;;;;;;;;;;21.10;75.40;;;;;;4992504;28;856;-72
2022/07/13 14:20:53;;;;;;;;;;;21.10;76.10;;;;;;4992458;28;915;-72
2022/07/13 14:23:18;;;;;;;;;;;21.10;75.40;;;;;;4975036;28;1088;-73
2022/07/13 14:25:44;;;;;;;;;;;21.10;75.40;;;;;;4982663;28;1206;-73
2022/07/13 14:28:09;;;;;;;;;;;21.10;75.40;;;;;;5011819;28;792;-73
2022/07/13 14:30:35;;;;;;;;;;;21.10;75.40;;;;;;4994367;28;950;-72
2022/07/13 14:33:00;;;;;;;;;;;21.10;75.40;;;;;;4994523;28;983;-73
2022/07/13 14:35:26;;;;;;;;;;;21.10;75.40;;;;;;5011256;28;1267;-72
2022/07/13 14:37:51;;;;;;;;;;;21.10;75.40;;;;;;5011704;28;938;-73
2022/07/13 14:40:17;;;;;;;;;;;21.10;75.40;;;;;;5011847;28;832;-72
2022/07/13 14:42:42;;;;;;;;;;;21.10;75.40;;;;;;5011782;28;946;-72
2022/07/13 14:45:08;;;;;;;;;;;21.10;75.40;;;;;;5011750;28;1217;-72